sensor_id;sensor_type;location;lat;lon;timestamp;temperature;humidity
77727;SHT30;68312;53.502;10.030;2023-09-12T00:00:54;19.40;87.70
77727;SHT30;68312;53.502;10.030;2023-09-12T00:03:22;19.40;87.72
77727;SHT30;68312;53.502;10.030;2023-09-12T00:05:57;19.37;87.99
77727;SHT30;68312;53.502;10.030;2023-09-12T00:08:24;19.37;88.55
77727;SHT30;68312;53.502;10.030;2023-09-12T00:11:09;19.31;88.49
77727;SHT30;68312;53.502;10.030;2023-09-12T00:13:39;19.34;89.07
77727;SHT30;68312;53.502;10.030;2023-09-12T00:16:06;19.49;89.52
77727;SHT30;68312;53.502;10.030;2023-09-12T00:18:32;19.54;89.62
77727;SHT30;68312;53.502;10.030;2023-09-12T00:20:59;19.60;89.47
77727;SHT30;68312;53.502;10.030;2023-09-12T00:23:26;19.68;89.39
77727;SHT30;68312;53.502;10.030;2023-09-12T00:25:52;19.70;89.34
77727;SHT30;68312;53.502;10.030;2023-09-12T00:28:18;19.74;89.24
77727;SHT30;68312;53.502;10.030;2023-09-12T00:30:44;19.77;89.13
77727;SHT30;68312;53.502;10.030;2023-09-12T00:33:27;19.75;89.11
77727;SHT30;68312;53.502;10.030;2023-09-12T00:35:53;19.71;89.21
77727;SHT30;68312;53.502;10.030;2023-09-12T00:38:18;19.68;89.29
77727;SHT30;68312;53.502;10.030;2023-09-12T00:40:44;19.67;89.37
77727;SHT30;68312;53.502;10.030;2023-09-12T00:43:09;19.65;89.51
77727;SHT30;68312;53.502;10.030;2023-09-12T00:45:35;19.67;89.47
77727;SHT30;68312;53.502;10.030;2023-09-12T00:48:04;19.62;89.54
77727;SHT30;68312;53.502;10.030;2023-09-12T00:50:31;19.61;89.56
77727;SHT30;68312;53.502;10.030;2023-09-12T00:52:58;19.60;89.55
77727;SHT30;68312;53.502;10.030;2023-09-12T00:55:24;19.54;89.60
77727;SHT30;68312;53.502;10.030;2023-09-12T00:57:52;19.53;89.61
77727;SHT30;68312;53.502;10.030;2023-09-12T01:00:18;19.50;89.69
77727;SHT30;68312;53.502;10.030;2023-09-12T01:02:46;19.50;89.69
77727;SHT30;68312;53.502;10.030;2023-09-12T01:05:14;19.49;89.64
77727;SHT30;68312;53.502;10.030;2023-09-12T01:07:42;19.47;89.67
77727;SHT30;68312;53.502;10.030;2023-09-12T01:10:09;19.41;89.64
77727;SHT30;68312;53.502;10.030;2023-09-12T01:12:36;19.44;89.75
77727;SHT30;68312;53.502;10.030;2023-09-12T01:15:01;19.38;89.56
77727;SHT30;68312;53.502;10.030;2023-09-12T01:17:30;19.31;89.62
77727;SHT30;68312;53.502;10.030;2023-09-12T01:19:56;19.23;89.85
77727;SHT30;68312;53.502;10.030;2023-09-12T01:22:45;19.19;90.01
77727;SHT30;68312;53.502;10.030;2023-09-12T01:28:13;19.03;90.31
77727;SHT30;68312;53.502;10.030;2023-09-12T01:30:42;18.99;90.33
77727;SHT30;68312;53.502;10.030;2023-09-12T01:33:10;18.92;90.41
77727;SHT30;68312;53.502;10.030;2023-09-12T01:35:35;18.89;90.66
77727;SHT30;68312;53.502;10.030;2023-09-12T01:38:01;18.85;90.84
77727;SHT30;68312;53.502;10.030;2023-09-12T01:40:47;18.81;90.91
77727;SHT30;68312;53.502;10.030;2023-09-12T01:43:17;18.82;91.07
77727;SHT30;68312;53.502;10.030;2023-09-12T01:45:45;18.81;91.11
77727;SHT30;68312;53.502;10.030;2023-09-12T01:48:19;18.79;91.16
77727;SHT30;68312;53.502;10.030;2023-09-12T01:50:47;18.81;91.44
77727;SHT30;68312;53.502;10.030;2023-09-12T01:53:13;18.81;91.40
77727;SHT30;68312;53.502;10.030;2023-09-12T01:55:43;18.79;91.36
77727;SHT30;68312;53.502;10.030;2023-09-12T01:58:11;18.76;91.34
77727;SHT30;68312;53.502;10.030;2023-09-12T02:00:39;18.73;91.36
77727;SHT30;68312;53.502;10.030;2023-09-12T02:03:05;18.75;91.46
77727;SHT30;68312;53.502;10.030;2023-09-12T02:05:30;18.73;91.52
77727;SHT30;68312;53.502;10.030;2023-09-12T02:07:56;18.72;91.56
77727;SHT30;68312;53.502;10.030;2023-09-12T02:10:21;18.72;91.67
77727;SHT30;68312;53.502;10.030;2023-09-12T02:12:47;18.81;91.88
77727;SHT30;68312;53.502;10.030;2023-09-12T02:15:12;18.83;91.94
77727;SHT30;68312;53.502;10.030;2023-09-12T02:17:38;18.88;91.90
77727;SHT30;68312;53.502;10.030;2023-09-12T02:20:07;18.92;91.83
77727;SHT30;68312;53.502;10.030;2023-09-12T02:22:33;18.96;91.82
77727;SHT30;68312;53.502;10.030;2023-09-12T02:24:58;19.00;91.70
77727;SHT30;68312;53.502;10.030;2023-09-12T02:27:23;19.03;91.55
77727;SHT30;68312;53.502;10.030;2023-09-12T02:29:49;19.09;91.35
77727;SHT30;68312;53.502;10.030;2023-09-12T02:32:14;19.12;91.25
77727;SHT30;68312;53.502;10.030;2023-09-12T02:34:40;19.13;91.20
77727;SHT30;68312;53.502;10.030;2023-09-12T02:37:05;19.16;91.07
77727;SHT30;68312;53.502;10.030;2023-09-12T02:39:30;19.16;90.96
77727;SHT30;68312;53.502;10.030;2023-09-12T02:41:56;19.10;91.00
77727;SHT30;68312;53.502;10.030;2023-09-12T02:44:21;19.13;91.23
77727;SHT30;68312;53.502;10.030;2023-09-12T02:46:47;19.14;91.21
77727;SHT30;68312;53.502;10.030;2023-09-12T02:49:13;19.13;91.18
77727;SHT30;68312;53.502;10.030;2023-09-12T02:51:39;19.12;91.21
77727;SHT30;68312;53.502;10.030;2023-09-12T02:54:05;19.12;91.29
77727;SHT30;68312;53.502;10.030;2023-09-12T02:56:31;19.09;91.36
77727;SHT30;68312;53.502;10.030;2023-09-12T02:58:56;19.12;91.33
77727;SHT30;68312;53.502;10.030;2023-09-12T03:01:22;19.09;91.31
77727;SHT30;68312;53.502;10.030;2023-09-12T03:03:50;19.06;91.36
77727;SHT30;68312;53.502;10.030;2023-09-12T03:06:16;19.10;91.37
77727;SHT30;68312;53.502;10.030;2023-09-12T03:08:43;19.10;91.20
77727;SHT30;68312;53.502;10.030;2023-09-12T03:11:09;19.04;91.20
77727;SHT30;68312;53.502;10.030;2023-09-12T03:13:39;19.06;91.28
77727;SHT30;68312;53.502;10.030;2023-09-12T03:16:04;19.04;91.36
77727;SHT30;68312;53.502;10.030;2023-09-12T03:18:30;19.03;91.44
77727;SHT30;68312;53.502;10.030;2023-09-12T03:20:55;19.02;91.51
77727;SHT30;68312;53.502;10.030;2023-09-12T03:23:21;18.99;91.69
77727;SHT30;68312;53.502;10.030;2023-09-12T03:25:46;19.00;91.83
77727;SHT30;68312;53.502;10.030;2023-09-12T03:28:12;18.99;91.93
77727;SHT30;68312;53.502;10.030;2023-09-12T03:30:38;18.96;92.07
77727;SHT30;68312;53.502;10.030;2023-09-12T03:33:05;19.00;92.20
77727;SHT30;68312;53.502;10.030;2023-09-12T03:35:34;19.00;92.20
77727;SHT30;68312;53.502;10.030;2023-09-12T03:41:40;18.92;92.51
77727;SHT30;68312;53.502;10.030;2023-09-12T03:44:06;18.89;92.68
77727;SHT30;68312;53.502;10.030;2023-09-12T03:46:31;18.86;92.80
77727;SHT30;68312;53.502;10.030;2023-09-12T03:48:57;18.89;92.91
77727;SHT30;68312;53.502;10.030;2023-09-12T03:51:22;18.85;93.04
77727;SHT30;68312;53.502;10.030;2023-09-12T03:53:48;18.82;93.15
77727;SHT30;68312;53.502;10.030;2023-09-12T03:56:15;18.83;93.22
77727;SHT30;68312;53.502;10.030;2023-09-12T03:58:41;18.82;93.27
77727;SHT30;68312;53.502;10.030;2023-09-12T04:01:07;18.82;93.34
77727;SHT30;68312;53.502;10.030;2023-09-12T04:03:32;18.79;93.34
77727;SHT30;68312;53.502;10.030;2023-09-12T04:05:58;18.77;93.53
77727;SHT30;68312;53.502;10.030;2023-09-12T04:08:23;18.73;93.54
77727;SHT30;68312;53.502;10.030;2023-09-12T04:10:49;18.73;93.57
77727;SHT30;68312;53.502;10.030;2023-09-12T04:13:14;18.75;93.80
77727;SHT30;68312;53.502;10.030;2023-09-12T04:15:39;18.73;93.83
77727;SHT30;68312;53.502;10.030;2023-09-12T04:18:05;18.69;93.90
77727;SHT30;68312;53.502;10.030;2023-09-12T04:20:31;18.71;94.02
77727;SHT30;68312;53.502;10.030;2023-09-12T04:22:56;18.71;94.07
77727;SHT30;68312;53.502;10.030;2023-09-12T04:25:21;18.69;94.21
77727;SHT30;68312;53.502;10.030;2023-09-12T04:27:47;18.66;94.26
77727;SHT30;68312;53.502;10.030;2023-09-12T04:30:13;18.65;94.29
77727;SHT30;68312;53.502;10.030;2023-09-12T04:32:38;18.61;94.32
77727;SHT30;68312;53.502;10.030;2023-09-12T04:35:04;18.51;94.35
77727;SHT30;68312;53.502;10.030;2023-09-12T04:37:30;18.47;94.39
77727;SHT30;68312;53.502;10.030;2023-09-12T04:39:55;18.47;94.47
77727;SHT30;68312;53.502;10.030;2023-09-12T04:42:21;18.47;94.54
77727;SHT30;68312;53.502;10.030;2023-09-12T04:44:47;18.47;94.58
77727;SHT30;68312;53.502;10.030;2023-09-12T04:47:12;18.42;94.57
77727;SHT30;68312;53.502;10.030;2023-09-12T04:49:39;18.41;94.66
77727;SHT30;68312;53.502;10.030;2023-09-12T04:52:05;18.38;94.68
77727;SHT30;68312;53.502;10.030;2023-09-12T04:54:31;18.38;94.73
77727;SHT30;68312;53.502;10.030;2023-09-12T04:56:57;18.35;94.85
77727;SHT30;68312;53.502;10.030;2023-09-12T04:59:22;18.40;94.89
77727;SHT30;68312;53.502;10.030;2023-09-12T05:01:48;18.47;94.99
77727;SHT30;68312;53.502;10.030;2023-09-12T05:04:13;18.55;95.09
77727;SHT30;68312;53.502;10.030;2023-09-12T05:06:38;18.56;95.14
77727;SHT30;68312;53.502;10.030;2023-09-12T05:09:05;18.54;95.17
77727;SHT30;68312;53.502;10.030;2023-09-12T05:11:31;18.51;95.12
77727;SHT30;68312;53.502;10.030;2023-09-12T05:13:56;18.49;95.10
77727;SHT30;68312;53.502;10.030;2023-09-12T05:16:22;18.52;95.18
77727;SHT30;68312;53.502;10.030;2023-09-12T05:18:47;18.51;95.23
77727;SHT30;68312;53.502;10.030;2023-09-12T05:21:14;18.51;95.23
77727;SHT30;68312;53.502;10.030;2023-09-12T05:23:40;18.52;95.26
77727;SHT30;68312;53.502;10.030;2023-09-12T05:26:05;18.52;95.30
77727;SHT30;68312;53.502;10.030;2023-09-12T05:28:31;18.56;95.33
77727;SHT30;68312;53.502;10.030;2023-09-12T05:30:57;18.58;95.33
77727;SHT30;68312;53.502;10.030;2023-09-12T05:33:22;18.59;95.40
77727;SHT30;68312;53.502;10.030;2023-09-12T05:35:47;18.59;95.43
77727;SHT30;68312;53.502;10.030;2023-09-12T05:38:13;18.62;95.44
77727;SHT30;68312;53.502;10.030;2023-09-12T05:40:38;18.61;95.46
77727;SHT30;68312;53.502;10.030;2023-09-12T05:43:04;18.63;95.51
77727;SHT30;68312;53.502;10.030;2023-09-12T05:45:29;18.65;95.48
77727;SHT30;68312;53.502;10.030;2023-09-12T05:47:57;18.71;95.54
77727;SHT30;68312;53.502;10.030;2023-09-12T05:50:23;18.66;95.53
77727;SHT30;68312;53.502;10.030;2023-09-12T05:52:48;18.65;95.53
77727;SHT30;68312;53.502;10.030;2023-09-12T05:55:14;18.61;95.54
77727;SHT30;68312;53.502;10.030;2023-09-12T05:57:39;18.61;95.55
77727;SHT30;68312;53.502;10.030;2023-09-12T06:00:05;18.61;95.57
77727;SHT30;68312;53.502;10.030;2023-09-12T06:02:35;18.62;95.58
77727;SHT30;68312;53.502;10.030;2023-09-12T06:05:00;18.62;95.61
77727;SHT30;68312;53.502;10.030;2023-09-12T06:07:26;18.65;95.64
77727;SHT30;68312;53.502;10.030;2023-09-12T06:09:51;18.68;95.70
77727;SHT30;68312;53.502;10.030;2023-09-12T06:12:16;18.71;95.68
77727;SHT30;68312;53.502;10.030;2023-09-12T06:14:42;18.75;95.65
77727;SHT30;68312;53.502;10.030;2023-09-12T06:17:07;18.79;95.67
77727;SHT30;68312;53.502;10.030;2023-09-12T06:19:32;18.85;95.70
77727;SHT30;68312;53.502;10.030;2023-09-12T06:21:58;18.88;95.68
77727;SHT30;68312;53.502;10.030;2023-09-12T06:24:23;18.95;95.67
77727;SHT30;68312;53.502;10.030;2023-09-12T06:26:49;18.96;95.64
77727;SHT30;68312;53.502;10.030;2023-09-12T06:29:15;18.96;95.56
77727;SHT30;68312;53.502;10.030;2023-09-12T06:31:42;18.99;95.51
77727;SHT30;68312;53.502;10.030;2023-09-12T06:34:08;19.06;95.50
77727;SHT30;68312;53.502;10.030;2023-09-12T06:36:33;19.09;95.49
77727;SHT30;68312;53.502;10.030;2023-09-12T06:39:00;19.07;95.44
77727;SHT30;68312;53.502;10.030;2023-09-12T06:41:27;19.09;95.17
77727;SHT30;68312;53.502;10.030;2023-09-12T06:43:54;19.06;95.03
77727;SHT30;68312;53.502;10.030;2023-09-12T06:46:22;19.06;95.05
77727;SHT30;68312;53.502;10.030;2023-09-12T06:48:47;19.10;95.12
77727;SHT30;68312;53.502;10.030;2023-09-12T06:51:16;19.09;95.10
77727;SHT30;68312;53.502;10.030;2023-09-12T06:53:41;19.12;95.07
77727;SHT30;68312;53.502;10.030;2023-09-12T06:56:07;19.13;95.11
77727;SHT30;68312;53.502;10.030;2023-09-12T06:58:33;19.19;95.11
77727;SHT30;68312;53.502;10.030;2023-09-12T07:01:06;19.26;95.14
77727;SHT30;68312;53.502;10.030;2023-09-12T07:03:34;19.27;95.03
77727;SHT30;68312;53.502;10.030;2023-09-12T07:06:00;19.28;95.03
77727;SHT30;68312;53.502;10.030;2023-09-12T07:08:26;19.33;95.03
77727;SHT30;68312;53.502;10.030;2023-09-12T07:10:52;19.37;95.02
77727;SHT30;68312;53.502;10.030;2023-09-12T07:13:22;19.38;94.90
77727;SHT30;68312;53.502;10.030;2023-09-12T07:15:50;19.34;94.78
77727;SHT30;68312;53.502;10.030;2023-09-12T07:18:16;19.35;94.77
77727;SHT30;68312;53.502;10.030;2023-09-12T07:20:42;19.37;94.58
77727;SHT30;68312;53.502;10.030;2023-09-12T07:23:07;19.34;94.33
77727;SHT30;68312;53.502;10.030;2023-09-12T07:25:40;19.33;94.32
77727;SHT30;68312;53.502;10.030;2023-09-12T07:28:09;19.33;94.28
77727;SHT30;68312;53.502;10.030;2023-09-12T07:30:35;19.34;94.22
77727;SHT30;68312;53.502;10.030;2023-09-12T07:33:05;19.37;94.25
77727;SHT30;68312;53.502;10.030;2023-09-12T07:35:30;19.44;94.26
77727;SHT30;68312;53.502;10.030;2023-09-12T07:37:56;19.44;94.15
77727;SHT30;68312;53.502;10.030;2023-09-12T07:40:21;19.50;94.14
77727;SHT30;68312;53.502;10.030;2023-09-12T07:42:47;19.57;94.14
77727;SHT30;68312;53.502;10.030;2023-09-12T07:45:12;19.58;94.02
77727;SHT30;68312;53.502;10.030;2023-09-12T07:47:39;19.70;94.01
77727;SHT30;68312;53.502;10.030;2023-09-12T07:50:05;19.82;93.72
77727;SHT30;68312;53.502;10.030;2023-09-12T07:52:32;19.89;93.54
77727;SHT30;68312;53.502;10.030;2023-09-12T07:55:02;19.99;93.19
77727;SHT30;68312;53.502;10.030;2023-09-12T07:57:29;20.09;93.02
77727;SHT30;68312;53.502;10.030;2023-09-12T07:59:58;20.08;92.39
77727;SHT30;68312;53.502;10.030;2023-09-12T08:02:24;20.12;92.46
77727;SHT30;68312;53.502;10.030;2023-09-12T08:04:50;20.13;92.45
77727;SHT30;68312;53.502;10.030;2023-09-12T08:07:16;20.20;92.03
77727;SHT30;68312;53.502;10.030;2023-09-12T08:09:54;20.22;91.68
77727;SHT30;68312;53.502;10.030;2023-09-12T08:12:21;20.33;91.61
77727;SHT30;68312;53.502;10.030;2023-09-12T08:14:47;20.47;91.46
77727;SHT30;68312;53.502;10.030;2023-09-12T08:17:14;20.73;90.90
77727;SHT30;68312;53.502;10.030;2023-09-12T08:19:41;20.84;89.72
77727;SHT30;68312;53.502;10.030;2023-09-12T08:22:08;20.87;88.93
77727;SHT30;68312;53.502;10.030;2023-09-12T08:24:37;20.66;88.84
77727;SHT30;68312;53.502;10.030;2023-09-12T08:27:04;20.60;89.19
77727;SHT30;68312;53.502;10.030;2023-09-12T08:29:30;20.64;89.45
77727;SHT30;68312;53.502;10.030;2023-09-12T08:31:57;20.78;89.59
77727;SHT30;68312;53.502;10.030;2023-09-12T08:34:23;20.98;89.65
77727;SHT30;68312;53.502;10.030;2023-09-12T08:36:48;21.04;89.24
77727;SHT30;68312;53.502;10.030;2023-09-12T08:39:16;20.91;88.36
77727;SHT30;68312;53.502;10.030;2023-09-12T08:41:44;20.90;89.03
77727;SHT30;68312;53.502;10.030;2023-09-12T08:44:13;21.01;89.20
77727;SHT30;68312;53.502;10.030;2023-09-12T08:46:42;21.36;88.98
77727;SHT30;68312;53.502;10.030;2023-09-12T08:49:08;21.43;87.81
77727;SHT30;68312;53.502;10.030;2023-09-12T08:51:38;21.57;87.48
77727;SHT30;68312;53.502;10.030;2023-09-12T08:54:05;21.70;86.04
77727;SHT30;68312;53.502;10.030;2023-09-12T08:56:33;22.00;85.50
77727;SHT30;68312;53.502;10.030;2023-09-12T08:59:01;22.33;83.99
77727;SHT30;68312;53.502;10.030;2023-09-12T09:01:30;22.83;83.11
77727;SHT30;68312;53.502;10.030;2023-09-12T09:03:56;23.14;81.48
77727;SHT30;68312;53.502;10.030;2023-09-12T09:06:23;23.26;81.97
77727;SHT30;68312;53.502;10.030;2023-09-12T09:08:49;23.23;81.28
77727;SHT30;68312;53.502;10.030;2023-09-12T09:11:16;22.86;80.25
77727;SHT30;68312;53.502;10.030;2023-09-12T09:13:42;22.65;82.17
77727;SHT30;68312;53.502;10.030;2023-09-12T09:16:18;22.37;82.78
77727;SHT30;68312;53.502;10.030;2023-09-12T09:22:25;21.75;84.77
77727;SHT30;68312;53.502;10.030;2023-09-12T09:25:10;21.50;85.35
77727;SHT30;68312;53.502;10.030;2023-09-12T09:27:37;21.43;85.98
77727;SHT30;68312;53.502;10.030;2023-09-12T09:30:03;21.42;85.97
77727;SHT30;68312;53.502;10.030;2023-09-12T09:32:28;21.49;86.14
77727;SHT30;68312;53.502;10.030;2023-09-12T09:34:54;21.72;85.44
77727;SHT30;68312;53.502;10.030;2023-09-12T09:37:19;21.94;85.21
77727;SHT30;68312;53.502;10.030;2023-09-12T09:39:44;22.22;84.89
77727;SHT30;68312;53.502;10.030;2023-09-12T09:42:11;22.49;83.30
77727;SHT30;68312;53.502;10.030;2023-09-12T09:44:39;23.60;80.79
77727;SHT30;68312;53.502;10.030;2023-09-12T09:47:05;24.70;77.40
77727;SHT30;68312;53.502;10.030;2023-09-12T09:49:34;24.81;74.36
77727;SHT30;68312;53.502;10.030;2023-09-12T09:52:04;24.40;75.38
77727;SHT30;68312;53.502;10.030;2023-09-12T09:58:15;23.02;80.53
77727;SHT30;68312;53.502;10.030;2023-09-12T10:00:42;22.68;81.69
77727;SHT30;68312;53.502;10.030;2023-09-12T10:03:10;22.37;82.75
77727;SHT30;68312;53.502;10.030;2023-09-12T10:05:37;22.24;83.39
77727;SHT30;68312;53.502;10.030;2023-09-12T10:08:07;22.08;82.88
77727;SHT30;68312;53.502;10.030;2023-09-12T10:10:36;21.96;83.45
77727;SHT30;68312;53.502;10.030;2023-09-12T10:13:03;22.00;84.22
77727;SHT30;68312;53.502;10.030;2023-09-12T10:15:30;21.83;84.54
77727;SHT30;68312;53.502;10.030;2023-09-12T10:18:04;21.72;84.90
77727;SHT30;68312;53.502;10.030;2023-09-12T10:20:38;21.76;84.67
77727;SHT30;68312;53.502;10.030;2023-09-12T10:23:12;21.76;84.53
77727;SHT30;68312;53.502;10.030;2023-09-12T10:25:40;21.83;84.60
77727;SHT30;68312;53.502;10.030;2023-09-12T10:28:07;21.86;84.13
77727;SHT30;68312;53.502;10.030;2023-09-12T10:30:33;21.89;83.65
77727;SHT30;68312;53.502;10.030;2023-09-12T10:33:02;21.83;84.18
77727;SHT30;68312;53.502;10.030;2023-09-12T10:35:31;21.69;83.26
77727;SHT30;68312;53.502;10.030;2023-09-12T10:38:02;21.53;83.85
77727;SHT30;68312;53.502;10.030;2023-09-12T10:40:32;21.29;83.38
77727;SHT30;68312;53.502;10.030;2023-09-12T10:43:00;21.24;84.09
77727;SHT30;68312;53.502;10.030;2023-09-12T10:45:29;21.17;84.54
77727;SHT30;68312;53.502;10.030;2023-09-12T10:47:55;21.18;84.30
77727;SHT30;68312;53.502;10.030;2023-09-12T10:50:21;21.15;84.59
77727;SHT30;68312;53.502;10.030;2023-09-12T10:52:46;21.15;84.69
77727;SHT30;68312;53.502;10.030;2023-09-12T10:55:17;21.18;85.03
77727;SHT30;68312;53.502;10.030;2023-09-12T10:58:08;21.17;84.80
77727;SHT30;68312;53.502;10.030;2023-09-12T11:00:34;21.19;84.34
77727;SHT30;68312;53.502;10.030;2023-09-12T11:05:55;21.17;84.77
77727;SHT30;68312;53.502;10.030;2023-09-12T11:08:21;21.12;84.56
77727;SHT30;68312;53.502;10.030;2023-09-12T11:11:19;21.05;85.17
77727;SHT30;68312;53.502;10.030;2023-09-12T11:13:46;21.01;85.16
77727;SHT30;68312;53.502;10.030;2023-09-12T11:16:16;20.95;85.74
77727;SHT30;68312;53.502;10.030;2023-09-12T11:19:18;20.90;86.28
77727;SHT30;68312;53.502;10.030;2023-09-12T11:21:49;20.84;86.54
77727;SHT30;68312;53.502;10.030;2023-09-12T11:24:15;20.83;86.75
77727;SHT30;68312;53.502;10.030;2023-09-12T11:26:59;20.80;86.78
77727;SHT30;68312;53.502;10.030;2023-09-12T11:29:37;20.76;87.00
77727;SHT30;68312;53.502;10.030;2023-09-12T11:32:04;20.68;87.14
77727;SHT30;68312;53.502;10.030;2023-09-12T11:34:43;20.67;87.34
77727;SHT30;68312;53.502;10.030;2023-09-12T11:37:10;20.64;87.92
77727;SHT30;68312;53.502;10.030;2023-09-12T11:39:38;20.59;87.62
77727;SHT30;68312;53.502;10.030;2023-09-12T11:42:05;20.57;87.48
77727;SHT30;68312;53.502;10.030;2023-09-12T11:44:34;20.57;87.49
77727;SHT30;68312;53.502;10.030;2023-09-12T11:47:01;20.64;87.84
77727;SHT30;68312;53.502;10.030;2023-09-12T11:49:39;20.73;88.15
77727;SHT30;68312;53.502;10.030;2023-09-12T11:52:14;20.74;88.24
77727;SHT30;68312;53.502;10.030;2023-09-12T11:54:43;20.76;87.91
77727;SHT30;68312;53.502;10.030;2023-09-12T11:57:15;20.78;88.05
77727;SHT30;68312;53.502;10.030;2023-09-12T11:59:43;20.81;87.89
77727;SHT30;68312;53.502;10.030;2023-09-12T12:02:11;20.71;86.41
77727;SHT30;68312;53.502;10.030;2023-09-12T12:04:37;20.66;86.00
77727;SHT30;68312;53.502;10.030;2023-09-12T12:07:04;20.67;86.46
77727;SHT30;68312;53.502;10.030;2023-09-12T12:09:31;20.66;85.86
77727;SHT30;68312;53.502;10.030;2023-09-12T12:12:03;20.63;86.30
77727;SHT30;68312;53.502;10.030;2023-09-12T12:14:33;20.68;87.15
77727;SHT30;68312;53.502;10.030;2023-09-12T12:17:07;20.71;87.48
77727;SHT30;68312;53.502;10.030;2023-09-12T12:19:35;20.74;87.52
77727;SHT30;68312;53.502;10.030;2023-09-12T12:22:03;20.80;87.57
77727;SHT30;68312;53.502;10.030;2023-09-12T12:24:46;20.90;87.70
77727;SHT30;68312;53.502;10.030;2023-09-12T12:27:15;20.90;86.57
77727;SHT30;68312;53.502;10.030;2023-09-12T12:29:40;20.84;86.31
77727;SHT30;68312;53.502;10.030;2023-09-12T12:32:07;20.88;86.67
77727;SHT30;68312;53.502;10.030;2023-09-12T12:34:35;20.98;86.70
77727;SHT30;68312;53.502;10.030;2023-09-12T12:37:00;20.97;86.62
77727;SHT30;68312;53.502;10.030;2023-09-12T12:39:26;21.04;86.56
77727;SHT30;68312;53.502;10.030;2023-09-12T12:41:53;21.07;86.22
77727;SHT30;68312;53.502;10.030;2023-09-12T12:44:19;21.21;86.17
77727;SHT30;68312;53.502;10.030;2023-09-12T12:46:52;21.27;84.99
77727;SHT30;68312;53.502;10.030;2023-09-12T12:49:19;21.24;84.78
77727;SHT30;68312;53.502;10.030;2023-09-12T12:51:46;21.31;85.05
77727;SHT30;68312;53.502;10.030;2023-09-12T12:54:12;21.41;85.49
77727;SHT30;68312;53.502;10.030;2023-09-12T12:56:38;21.34;84.80
77727;SHT30;68312;53.502;10.030;2023-09-12T12:59:06;21.35;85.10
77727;SHT30;68312;53.502;10.030;2023-09-12T13:01:35;21.39;84.66
77727;SHT30;68312;53.502;10.030;2023-09-12T13:04:01;21.46;85.56
77727;SHT30;68312;53.502;10.030;2023-09-12T13:06:26;21.49;84.59
77727;SHT30;68312;53.502;10.030;2023-09-12T13:08:55;21.43;84.53
77727;SHT30;68312;53.502;10.030;2023-09-12T13:11:22;21.45;84.68
77727;SHT30;68312;53.502;10.030;2023-09-12T13:13:49;21.45;84.67
77727;SHT30;68312;53.502;10.030;2023-09-12T13:16:15;21.62;84.20
77727;SHT30;68312;53.502;10.030;2023-09-12T13:18:41;21.72;83.49
77727;SHT30;68312;53.502;10.030;2023-09-12T13:21:07;21.72;82.65
77727;SHT30;68312;53.502;10.030;2023-09-12T13:23:37;21.72;82.27
77727;SHT30;68312;53.502;10.030;2023-09-12T13:26:03;21.75;83.17
77727;SHT30;68312;53.502;10.030;2023-09-12T13:28:30;21.85;83.52
77727;SHT30;68312;53.502;10.030;2023-09-12T13:30:56;21.96;82.82
77727;SHT30;68312;53.502;10.030;2023-09-12T13:33:22;22.20;83.04
77727;SHT30;68312;53.502;10.030;2023-09-12T13:35:49;22.31;81.88
77727;SHT30;68312;53.502;10.030;2023-09-12T13:38:14;22.55;81.71
77727;SHT30;68312;53.502;10.030;2023-09-12T13:40:43;22.58;80.12
77727;SHT30;68312;53.502;10.030;2023-09-12T13:43:08;22.66;80.01
77727;SHT30;68312;53.502;10.030;2023-09-12T13:45:35;22.75;77.88
77727;SHT30;68312;53.502;10.030;2023-09-12T13:48:02;22.48;78.94
77727;SHT30;68312;53.502;10.030;2023-09-12T13:50:29;22.27;80.06
77727;SHT30;68312;53.502;10.030;2023-09-12T13:52:55;22.21;80.53
77727;SHT30;68312;53.502;10.030;2023-09-12T13:55:25;21.97;81.06
77727;SHT30;68312;53.502;10.030;2023-09-12T13:57:50;21.98;81.46
77727;SHT30;68312;53.502;10.030;2023-09-12T14:00:16;22.06;81.92
77727;SHT30;68312;53.502;10.030;2023-09-12T14:02:41;21.98;81.60
77727;SHT30;68312;53.502;10.030;2023-09-12T14:05:07;21.87;82.40
77727;SHT30;68312;53.502;10.030;2023-09-12T14:07:32;21.82;82.73
77727;SHT30;68312;53.502;10.030;2023-09-12T14:09:58;21.76;82.23
77727;SHT30;68312;53.502;10.030;2023-09-12T14:12:24;21.73;81.95
77727;SHT30;68312;53.502;10.030;2023-09-12T14:14:49;21.66;82.81
77727;SHT30;68312;53.502;10.030;2023-09-12T14:17:16;21.66;82.11
77727;SHT30;68312;53.502;10.030;2023-09-12T14:19:44;21.80;81.85
77727;SHT30;68312;53.502;10.030;2023-09-12T14:22:10;21.98;81.31
77727;SHT30;68312;53.502;10.030;2023-09-12T14:24:36;22.08;79.98
77727;SHT30;68312;53.502;10.030;2023-09-12T14:27:01;22.17;79.09
77727;SHT30;68312;53.502;10.030;2023-09-12T14:29:26;22.10;79.54
77727;SHT30;68312;53.502;10.030;2023-09-12T14:31:53;21.96;79.80
77727;SHT30;68312;53.502;10.030;2023-09-12T14:34:24;21.85;80.62
77727;SHT30;68312;53.502;10.030;2023-09-12T14:36:53;21.69;80.87
77727;SHT30;68312;53.502;10.030;2023-09-12T14:39:19;21.60;81.71
77727;SHT30;68312;53.502;10.030;2023-09-12T14:41:44;21.52;81.14
77727;SHT30;68312;53.502;10.030;2023-09-12T14:44:14;21.57;81.38
77727;SHT30;68312;53.502;10.030;2023-09-12T14:46:40;21.94;79.53
77727;SHT30;68312;53.502;10.030;2023-09-12T14:49:05;22.62;78.67
77727;SHT30;68312;53.502;10.030;2023-09-12T14:51:30;23.30;74.89
77727;SHT30;68312;53.502;10.030;2023-09-12T14:53:56;23.79;73.04
77727;SHT30;68312;53.502;10.030;2023-09-12T14:56:21;24.04;71.90
77727;SHT30;68312;53.502;10.030;2023-09-12T14:58:48;24.16;72.73
77727;SHT30;68312;53.502;10.030;2023-09-12T15:01:14;24.15;72.18
77727;SHT30;68312;53.502;10.030;2023-09-12T15:03:39;24.25;73.25
77727;SHT30;68312;53.502;10.030;2023-09-12T15:06:06;24.09;71.46
77727;SHT30;68312;53.502;10.030;2023-09-12T15:08:32;23.91;71.49
77727;SHT30;68312;53.502;10.030;2023-09-12T15:11:01;23.71;72.04
77727;SHT30;68312;53.502;10.030;2023-09-12T15:13:27;23.47;72.17
77727;SHT30;68312;53.502;10.030;2023-09-12T15:15:52;23.58;72.14
77727;SHT30;68312;53.502;10.030;2023-09-12T15:18:17;23.37;73.17
77727;SHT30;68312;53.502;10.030;2023-09-12T15:20:43;23.30;74.19
77727;SHT30;68312;53.502;10.030;2023-09-12T15:23:08;22.99;75.24
77727;SHT30;68312;53.502;10.030;2023-09-12T15:25:33;22.99;75.36
77727;SHT30;68312;53.502;10.030;2023-09-12T15:28:01;23.10;73.80
77727;SHT30;68312;53.502;10.030;2023-09-12T15:30:27;23.16;73.91
77727;SHT30;68312;53.502;10.030;2023-09-12T15:32:52;23.17;74.89